Time;durP1;ratioP1;P1;durP2;ratioP2;P2;SDS_P1;SDS_P2;PMS_P1;PMS_P2;Temp;Humidity;BMP_temperature;BMP_pressure;BME280_temperature;BME280_humidity;BME280_pressure;Samples;Min_cycle;Max_cycle;Signal;HPM_P1;HPM_P2
2021/06/17 00:01:18;;;;;;;2.70;2.50;;;22.10;57.40;;;;;;3098882;28;20070;-79
2021/06/17 00:02:53;;;;;;;2.72;2.40;;;22.10;57.40;;;;;;3098789;28;20053;-79
2021/06/17 00:04:25;;;;;;;2.67;2.40;;;22.10;57.30;;;;;;3099739;28;20055;-80
2021/06/17 00:05:56;;;;;;;3.70;2.50;;;22.10;57.30;;;;;;3099425;28;20054;-79
2021/06/17 00:07:27;;;;;;;2.70;2.50;;;22.10;57.30;;;;;;3099054;28;20090;-79
2021/06/17 00:08:58;;;;;;;2.85;2.55;;;22.10;57.30;;;;;;3098880;28;20053;-80
2021/06/17 00:10:32;;;;;;;3.80;2.55;;;22.10;57.30;;;;;;3099482;28;20053;-80
2021/06/17 00:12:04;;;;;;;2.63;2.42;;;22.10;57.40;;;;;;3099478;28;20495;-79
2021/06/17 00:13:36;;;;;;;2.95;2.60;;;22.10;57.90;;;;;;3098811;28;20073;-79
2021/06/17 00:15:09;;;;;;;2.92;2.63;;;22.10;57.30;;;;;;3098489;28;20090;-79
2021/06/17 00:16:41;;;;;;;2.60;2.40;;;22.10;57.30;;;;;;3099279;28;20202;-79
2021/06/17 00:18:14;;;;;;;2.97;2.70;;;22.10;57.30;;;;;;3098869;28;20083;-80
2021/06/17 00:19:44;;;;;;;;;;;22.10;57.30;;;;;;3099406;28;20510;-79
2021/06/17 00:21:16;;;;;;;2.80;2.60;;;22.10;57.30;;;;;;3099458;28;19925;-80
2021/06/17 00:22:47;;;;;;;2.78;2.58;;;22.10;57.30;;;;;;3098696;28;20051;-79
2021/06/17 00:24:18;;;;;;;4.22;2.92;;;22.10;57.30;;;;;;3099425;28;20082;-79
2021/06/17 00:25:50;;;;;;;2.83;2.60;;;22.10;57.40;;;;;;3099485;28;20069;-80
2021/06/17 00:27:21;;;;;;;2.95;2.65;;;22.10;57.30;;;;;;3099381;28;20050;-79
2021/06/17 00:28:53;;;;;;;2.75;2.55;;;22.10;57.30;;;;;;3099054;28;20464;-80
2021/06/17 00:30:25;;;;;;;3.17;2.83;;;22.10;57.30;;;;;;3098279;28;21665;-79
2021/06/17 00:31:56;;;;;;;2.67;2.47;;;22.10;57.30;;;;;;3099247;28;20073;-79
2021/06/17 00:33:29;;;;;;;2.85;2.60;;;22.10;57.30;;;;;;3098887;28;20053;-80
2021/06/17 00:35:00;;;;;;;;;;;22.10;57.30;;;;;;3123192;23;20053;-77
2021/06/17 00:36:31;;;;;;;3.05;2.80;;;22.10;57.30;;;;;;3111349;28;19922;-78
2021/06/17 00:38:04;;;;;;;3.30;3.00;;;22.10;57.30;;;;;;3117380;28;20064;-78
2021/06/17 00:39:37;;;;;;;2.83;2.63;;;22.10;57.30;;;;;;3134698;28;20095;-78
2021/06/17 00:41:09;;;;;;;;;;;22.10;57.30;;;;;;3135432;28;20095;-77
2021/06/17 00:42:40;;;;;;;2.83;2.60;;;22.10;57.30;;;;;;3134380;28;19967;-78
2021/06/17 00:44:11;;;;;;;2.80;2.50;;;22.10;57.40;;;;;;3136137;28;20124;-78
2021/06/17 00:45:45;;;;;;;2.70;2.50;;;22.10;57.30;;;;;;3146065;28;20072;-77
2021/06/17 00:47:15;;;;;;;3.10;2.80;;;22.10;57.30;;;;;;3147094;28;20077;-78
2021/06/17 00:48:48;;;;;;;2.80;2.60;;;22.10;57.30;;;;;;3146730;28;20055;-78
2021/06/17 00:50:19;;;;;;;;;;;22.10;57.30;;;;;;3147904;28;20080;-78
2021/06/17 00:51:50;;;;;;;3.03;2.72;;;22.10;57.30;;;;;;3147058;28;19947;-79
2021/06/17 00:53:23;;;;;;;3.67;3.00;;;22.10;57.30;;;;;;3146529;28;20083;-78
2021/06/17 00:54:57;;;;;;;2.90;2.70;;;22.10;57.30;;;;;;3147136;28;20127;-78
2021/06/17 00:56:29;;;;;;;2.67;2.47;;;22.10;57.30;;;;;;3147132;28;20061;-78
2021/06/17 00:58:00;;;;;;;2.80;2.60;;;22.10;57.40;;;;;;3146549;28;20125;-78
2021/06/17 00:59:32;;;;;;;3.00;2.70;;;22.10;57.30;;;;;;3147125;28;20045;-77
2021/06/17 01:01:03;;;;;;;3.10;2.80;;;22.10;57.30;;;;;;3146250;28;20093;-77
2021/06/17 01:02:35;;;;;;;3.25;2.33;;;22.10;57.30;;;;;;3147139;28;20052;-77
2021/06/17 01:04:08;;;;;;;2.97;2.50;;;22.10;57.30;;;;;;3146517;28;20106;-76
2021/06/17 01:05:40;;;;;;;;;;;22.10;57.30;;;;;;3147717;28;20091;-78
2021/06/17 01:07:11;;;;;;;3.10;2.80;;;22.10;57.30;;;;;;3147237;28;19959;-78
2021/06/17 01:08:49;;;;;;;3.35;2.90;;;22.10;57.30;;;;;;3146274;28;20495;-78
2021/06/17 01:10:26;;;;;;;2.95;2.50;;;22.10;57.20;;;;;;3147015;28;20053;-78
2021/06/17 01:12:02;;;;;;;3.25;2.80;;;22.10;57.30;;;;;;3146945;28;20106;-77
2021/06/17 01:13:36;;;;;;;3.17;2.88;;;22.10;57.30;;;;;;3146526;28;20068;-78
2021/06/17 01:15:09;;;;;;;3.25;2.80;;;22.10;57.30;;;;;;3146738;28;20174;-78
2021/06/17 01:16:43;;;;;;;2.95;2.75;;;22.10;57.30;;;;;;3148960;28;20052;-76
2021/06/17 01:18:15;;;;;;;3.05;2.85;;;22.10;57.30;;;;;;3147816;28;20079;-78
2021/06/17 01:19:53;;;;;;;2.90;2.60;;;22.10;57.30;;;;;;3148234;28;20055;-77
2021/06/17 01:21:30;;;;;;;2.80;2.60;;;22.10;57.30;;;;;;3148318;28;20072;-78
2021/06/17 01:23:07;;;;;;;2.97;2.72;;;22.10;57.40;;;;;;3147573;28;20048;-78
2021/06/17 01:24:50;;;;;;;2.95;2.65;;;22.10;57.30;;;;;;3148501;28;20083;-78
2021/06/17 01:26:24;;;;;;;2.90;2.60;;;22.10;57.30;;;;;;3148126;28;20135;-77
2021/06/17 01:28:10;;;;;;;3.75;2.83;;;22.10;57.20;;;;;;3147728;28;20045;-78
2021/06/17 01:29:42;;;;;;;3.17;2.88;;;22.10;57.20;;;;;;3148200;28;20044;-78
2021/06/17 01:31:15;;;;;;;2.80;2.60;;;22.10;57.20;;;;;;3147277;28;20064;-78
2021/06/17 01:32:46;;;;;;;;;;;22.10;57.30;;;;;;3147998;28;20048;-77
2021/06/17 01:34:18;;;;;;;2.90;2.60;;;22.10;57.30;;;;;;3147806;28;20592;-78
2021/06/17 01:35:49;;;;;;;2.67;2.47;;;22.10;57.20;;;;;;3147975;28;20083;-78
2021/06/17 01:37:25;;;;;;;3.17;2.78;;;22.10;57.20;;;;;;3147386;28;20048;-79
2021/06/17 01:38:58;;;;;;;3.00;2.70;;;22.10;57.30;;;;;;3146826;28;20072;-79
2021/06/17 01:40:31;;;;;;;2.85;2.55;;;22.10;57.20;;;;;;3147290;28;20060;-78
2021/06/17 01:42:03;;;;;;;2.95;2.75;;;22.10;57.20;;;;;;3147781;28;20083;-78
2021/06/17 01:43:36;;;;;;;2.90;2.67;;;22.10;57.30;;;;;;3147480;28;20063;-78
2021/06/17 01:45:08;;;;;;;2.83;2.63;;;22.10;57.20;;;;;;3147031;28;20048;-78
2021/06/17 01:46:39;;;;;;;3.13;2.83;;;22.10;57.20;;;;;;3147890;28;20044;-78
2021/06/17 01:48:11;;;;;;;2.92;2.50;;;22.10;57.30;;;;;;3147128;28;20044;-78
2021/06/17 01:49:42;;;;;;;2.78;2.58;;;22.10;57.20;;;;;;3147709;28;20075;-78
2021/06/17 01:51:15;;;;;;;2.85;2.65;;;22.10;57.20;;;;;;3147979;28;20429;-78
2021/06/17 01:52:46;;;;;;;2.83;2.63;;;22.10;57.20;;;;;;3147434;28;20072;-78
2021/06/17 01:54:21;;;;;;;3.10;2.90;;;22.10;57.20;;;;;;3147640;28;20055;-78
2021/06/17 01:55:57;;;;;;;4.10;2.78;;;22.10;57.10;;;;;;3147815;28;20083;-79
2021/06/17 01:57:28;;;;;;;2.88;2.35;;;22.10;57.10;;;;;;3147250;28;20055;-78
2021/06/17 01:59:04;;;;;;;2.75;2.55;;;22.10;57.10;;;;;;3147159;28;20041;-78
2021/06/17 02:00:36;;;;;;;3.15;2.88;;;22.10;57.10;;;;;;3146871;28;20068;-79
2021/06/17 02:02:08;;;;;;;3.00;2.70;;;22.10;57.20;;;;;;3147750;28;20089;-78
2021/06/17 02:03:39;;;;;;;2.83;2.60;;;22.10;57.20;;;;;;3147315;28;20037;-77
2021/06/17 02:05:11;;;;;;;3.00;2.70;;;22.10;57.10;;;;;;3148055;28;20080;-77
2021/06/17 02:06:42;;;;;;;3.00;2.63;;;22.10;57.10;;;;;;3147752;28;20080;-78
2021/06/17 02:08:15;;;;;;;3.78;2.78;;;22.10;57.10;;;;;;3147214;28;20044;-78
2021/06/17 02:09:48;;;;;;;2.78;2.58;;;22.10;57.10;;;;;;3147606;28;20064;-78
2021/06/17 02:11:20;;;;;;;;;;;22.10;57.10;;;;;;3148345;28;20516;-78
2021/06/17 02:12:51;;;;;;;3.25;2.70;;;22.10;57.10;;;;;;3147093;28;20020;-78
2021/06/17 02:14:25;;;;;;;4.03;2.65;;;22.10;57.10;;;;;;3147853;28;20079;-78
2021/06/17 02:15:57;;;;;;;2.60;2.40;;;22.10;57.10;;;;;;3147038;28;20053;-78
2021/06/17 02:17:27;;;;;;;2.90;2.70;;;22.10;57.10;;;;;;3147682;28;20057;-77
2021/06/17 02:19:01;;;;;;;3.40;2.85;;;22.10;57.10;;;;;;3147116;28;20109;-78
2021/06/17 02:20:33;;;;;;;3.08;2.78;;;22.10;57.00;;;;;;3147513;28;20416;-77
2021/06/17 02:22:04;;;;;;;2.78;2.58;;;22.20;57.10;;;;;;3147798;28;20125;-78
2021/06/17 02:23:37;;;;;;;2.80;2.60;;;22.10;57.10;;;;;;3147324;28;20078;-78
2021/06/17 02:25:09;;;;;;;2.92;2.72;;;22.10;57.10;;;;;;3147943;28;20091;-78
2021/06/17 02:26:41;;;;;;;3.05;2.75;;;22.10;57.10;;;;;;3147683;28;20053;-77
2021/06/17 02:28:15;;;;;;;2.80;2.60;;;22.10;57.10;;;;;;3147223;28;20048;-78
2021/06/17 02:29:48;;;;;;;2.80;2.60;;;22.10;57.00;;;;;;3147424;28;20326;-78
2021/06/17 02:31:22;;;;;;;2.67;2.47;;;22.10;57.10;;;;;;3146993;28;20072;-78
2021/06/17 02:32:55;;;;;;;2.78;2.58;;;22.10;57.00;;;;;;3147018;28;20087;-78
2021/06/17 02:34:26;;;;;;;3.03;2.40;;;22.10;57.00;;;;;;3147592;28;20485;-78
2021/06/17 02:35:57;;;;;;;2.55;2.35;;;22.10;57.10;;;;;;3147680;28;20076;-78
2021/06/17 02:37:29;;;;;;;2.72;2.53;;;22.10;57.10;;;;;;3147680;28;20044;-78
2021/06/17 02:39:02;;;;;;;2.92;2.47;;;22.10;57.10;;;;;;3147373;28;20048;-78
2021/06/17 02:40:36;;;;;;;2.88;2.65;;;22.10;57.10;;;;;;3147493;28;20055;-78
2021/06/17 02:42:08;;;;;;;3.17;2.60;;;22.10;57.00;;;;;;3147637;28;20072;-78
2021/06/17 02:43:42;;;;;;;3.17;2.88;;;22.10;57.00;;;;;;3147168;28;20076;-78
2021/06/17 02:45:15;;;;;;;2.80;2.60;;;22.10;57.00;;;;;;3146779;28;20076;-78
2021/06/17 02:46:46;;;;;;;3.67;2.70;;;22.10;57.00;;;;;;3147276;28;20048;-78
2021/06/17 02:48:18;;;;;;;2.60;2.40;;;22.10;57.00;;;;;;3147415;28;20493;-78
2021/06/17 02:49:49;;;;;;;3.00;2.70;;;22.10;57.00;;;;;;3147312;28;20664;-78
2021/06/17 02:51:21;;;;;;;2.80;2.60;;;22.10;57.00;;;;;;3147593;28;20076;-77
2021/06/17 02:52:53;;;;;;;2.38;2.17;;;22.10;57.00;;;;;;3149254;28;20076;-78
2021/06/17 02:54:24;;;;;;;3.03;2.58;;;22.10;57.00;;;;;;3149935;28;20416;-78
2021/06/17 02:55:56;;;;;;;2.70;2.50;;;22.10;57.00;;;;;;3150343;28;20095;-78
2021/06/17 02:57:34;;;;;;;2.75;2.55;;;22.10;57.00;;;;;;3150253;28;20049;-77
2021/06/17 02:59:15;;;;;;;2.70;2.50;;;22.10;57.00;;;;;;3149564;28;20394;-78
2021/06/17 03:00:50;;;;;;;2.97;2.75;;;22.10;57.00;;;;;;3148738;28;20088;-78
2021/06/17 03:02:25;;;;;;;2.70;2.50;;;22.10;57.00;;;;;;3149711;28;20072;-79
2021/06/17 03:03:57;;;;;;;2.92;2.50;;;22.10;57.00;;;;;;3148227;28;20060;-78
2021/06/17 03:05:34;;;;;;;2.65;2.45;;;22.10;56.90;;;;;;3148353;28;20068;-78
2021/06/17 03:07:06;;;;;;;2.60;2.40;;;22.10;56.90;;;;;;3148387;28;20600;-77
2021/06/17 03:08:41;;;;;;;2.95;2.60;;;22.10;56.90;;;;;;3148165;28;20539;-77
2021/06/17 03:10:11;;;;;;;3.58;2.70;;;22.10;56.90;;;;;;3148326;28;20059;-78
2021/06/17 03:11:45;;;;;;;3.03;2.80;;;22.10;56.90;;;;;;3148230;28;20516;-78
2021/06/17 03:13:16;;;;;;;3.00;2.70;;;22.10;56.90;;;;;;3148058;28;20045;-78
2021/06/17 03:14:48;;;;;;;2.70;2.50;;;22.10;56.90;;;;;;3148126;28;20080;-77
2021/06/17 03:16:24;;;;;;;2.45;2.25;;;22.10;56.90;;;;;;3147431;28;20593;-78
2021/06/17 03:17:56;;;;;;;2.90;2.60;;;22.10;56.90;;;;;;3147802;28;20505;-78
2021/06/17 03:19:28;;;;;;;2.55;2.35;;;22.10;56.90;;;;;;3148315;28;20461;-77
2021/06/17 03:20:59;;;;;;;2.90;2.60;;;22.10;56.90;;;;;;3147908;28;20072;-78
2021/06/17 03:22:30;;;;;;;2.83;2.55;;;22.10;56.90;;;;;;3148349;28;20495;-78
2021/06/17 03:24:02;;;;;;;3.05;2.50;;;22.10;56.90;;;;;;3147641;28;20044;-78
2021/06/17 03:25:34;;;;;;;3.10;2.80;;;22.10;56.90;;;;;;3148306;28;20079;-78
2021/06/17 03:27:06;;;;;;;3.58;2.63;;;22.10;56.90;;;;;;3148044;28;20084;-77
2021/06/17 03:28:40;;;;;;;2.72;2.53;;;22.10;56.90;;;;;;3147854;28;20052;-77
2021/06/17 03:30:13;;;;;;;2.53;2.33;;;22.10;56.90;;;;;;3146938;28;20084;-78
2021/06/17 03:31:46;;;;;;;2.97;2.50;;;22.10;56.90;;;;;;3147898;28;20091;-78
2021/06/17 03:33:17;;;;;;;2.88;2.58;;;22.10;56.80;;;;;;3147721;28;20055;-78
2021/06/17 03:34:49;;;;;;;2.95;2.70;;;22.10;56.80;;;;;;3147992;28;20045;-78
2021/06/17 03:36:20;;;;;;;2.70;2.50;;;22.20;56.90;;;;;;3148106;28;20079;-77
2021/06/17 03:37:52;;;;;;;3.05;2.70;;;22.10;56.80;;;;;;3147672;28;20474;-78
2021/06/17 03:39:24;;;;;;;2.75;2.38;;;22.10;56.90;;;;;;3148133;28;20098;-78
2021/06/17 03:40:55;;;;;;;2.88;2.67;;;22.10;56.90;;;;;;3147650;28;20079;-78
2021/06/17 03:42:26;;;;;;;2.97;2.53;;;22.10;56.90;;;;;;3148231;28;20080;-77
2021/06/17 03:43:57;;;;;;;2.95;2.38;;;22.10;56.90;;;;;;3147271;28;20055;-78
2021/06/17 03:45:28;;;;;;;2.70;2.50;;;22.10;56.90;;;;;;3147313;28;20485;-77
2021/06/17 03:47:01;;;;;;;2.80;2.40;;;22.10;56.90;;;;;;3147860;28;20044;-78
2021/06/17 03:48:32;;;;;;;;;;;22.10;56.80;;;;;;3148128;28;20068;-78
2021/06/17 03:50:05;;;;;;;2.58;2.25;;;22.10;56.80;;;;;;3147761;28;20416;-77
2021/06/17 03:51:38;;;;;;;2.53;2.33;;;22.20;56.90;;;;;;3148058;28;20513;-77
2021/06/17 03:53:09;;;;;;;;;;;22.10;56.80;;;;;;3147636;28;20526;-78
2021/06/17 03:54:40;;;;;;;2.75;2.55;;;22.10;56.80;;;;;;3147741;28;19975;-77
2021/06/17 03:56:12;;;;;;;3.10;2.47;;;22.10;56.80;;;;;;3147694;28;20049;-78
2021/06/17 03:57:44;;;;;;;2.50;2.30;;;22.10;56.80;;;;;;3147261;28;20076;-77
2021/06/17 03:59:15;;;;;;;3.00;2.70;;;22.10;56.80;;;;;;3147915;28;20082;-78
2021/06/17 04:00:47;;;;;;;2.88;2.67;;;22.10;56.80;;;;;;3146544;28;20103;-78
2021/06/17 04:02:20;;;;;;;2.47;2.28;;;22.10;56.80;;;;;;3147372;28;20076;-78
2021/06/17 04:03:51;;;;;;;;;;;22.10;56.80;;;;;;3147629;28;20524;-78
2021/06/17 04:05:22;;;;;;;2.60;2.40;;;22.10;56.80;;;;;;3147811;28;20376;-77
2021/06/17 04:06:54;;;;;;;3.60;2.58;;;22.10;56.80;;;;;;3147668;28;20044;-78
2021/06/17 04:08:28;;;;;;;3.00;2.60;;;22.20;56.90;;;;;;3147248;28;20072;-76
2021/06/17 04:09:59;;;;;;;2.53;2.33;;;22.10;56.80;;;;;;3147164;28;20532;-78
2021/06/17 04:11:31;;;;;;;2.85;2.60;;;22.10;56.80;;;;;;3147585;28;20040;-78
2021/06/17 04:13:02;;;;;;;2.90;2.60;;;22.10;56.80;;;;;;3147112;28;20064;-77
2021/06/17 04:14:35;;;;;;;2.67;2.40;;;22.10;56.80;;;;;;3147994;28;20080;-78
2021/06/17 04:16:06;;;;;;;2.72;2.38;;;22.10;56.80;;;;;;3146583;28;20044;-78
2021/06/17 04:17:41;;;;;;;3.70;2.50;;;22.10;56.80;;;;;;3147279;28;20055;-78
2021/06/17 04:19:12;;;;;;;4.40;2.22;;;22.10;56.80;;;;;;3147474;28;20068;-78
2021/06/17 04:20:44;;;;;;;2.60;2.40;;;22.10;56.80;;;;;;3147510;28;20076;-78
2021/06/17 04:22:16;;;;;;;3.33;2.70;;;22.10;56.80;;;;;;3147443;28;20095;-78
2021/06/17 04:23:51;;;;;;;2.53;2.33;;;22.10;56.80;;;;;;3146993;28;20048;-77
2021/06/17 04:25:23;;;;;;;3.35;2.53;;;22.10;56.80;;;;;;3147732;28;20076;-78
2021/06/17 04:26:54;;;;;;;2.88;2.67;;;22.10;56.80;;;;;;3147400;28;20096;-78
2021/06/17 04:28:27;;;;;;;2.55;2.35;;;22.10;56.80;;;;;;3146868;28;20048;-77
2021/06/17 04:29:59;;;;;;;2.72;2.53;;;22.10;56.80;;;;;;3146719;28;20059;-78
2021/06/17 04:31:30;;;;;;;2.40;2.20;;;22.10;56.80;;;;;;3146466;28;20075;-78
2021/06/17 04:33:03;;;;;;;2.50;2.30;;;22.10;56.80;;;;;;3146376;28;20072;-78
2021/06/17 04:34:35;;;;;;;2.50;2.30;;;22.10;56.80;;;;;;3147060;28;20148;-78
2021/06/17 04:36:08;;;;;;;2.78;2.28;;;22.10;56.80;;;;;;3147494;28;20076;-78
2021/06/17 04:37:39;;;;;;;2.88;2.40;;;22.10;56.80;;;;;;3147476;28;20509;-77
2021/06/17 04:39:11;;;;;;;2.70;2.42;;;22.10;56.80;;;;;;3146823;28;20051;-78
2021/06/17 04:40:44;;;;;;;2.60;2.40;;;22.10;56.80;;;;;;3146980;28;20140;-78
2021/06/17 04:42:16;;;;;;;2.58;2.38;;;22.10;56.70;;;;;;3147298;28;20055;-78
2021/06/17 04:43:48;;;;;;;2.40;2.20;;;22.10;56.80;;;;;;3146645;28;20090;-78
2021/06/17 04:45:20;;;;;;;2.40;2.20;;;22.20;56.90;;;;;;3146394;28;20079;-78
2021/06/17 04:46:52;;;;;;;2.70;2.40;;;22.10;56.80;;;;;;3147334;28;20052;-77
2021/06/17 04:48:26;;;;;;;3.00;2.53;;;22.10;56.70;;;;;;3146671;28;20083;-78
2021/06/17 04:49:58;;;;;;;2.50;2.30;;;22.10;56.80;;;;;;3147116;28;20060;-78
2021/06/17 04:51:30;;;;;;;2.60;2.40;;;22.10;56.80;;;;;;3147077;28;20076;-78
2021/06/17 04:53:08;;;;;;;2.53;2.33;;;22.10;56.80;;;;;;3146557;28;20481;-78
2021/06/17 04:54:40;;;;;;;2.53;2.33;;;22.10;56.80;;;;;;3147193;28;20049;-78
2021/06/17 04:56:13;;;;;;;2.63;2.42;;;22.10;56.80;;;;;;3147308;28;20076;-78
2021/06/17 04:57:44;;;;;;;2.40;2.20;;;22.10;56.80;;;;;;3146395;28;20120;-78
2021/06/17 04:59:16;;;;;;;2.60;2.40;;;22.10;56.80;;;;;;3147069;28;20078;-78
2021/06/17 05:00:47;;;;;;;2.97;2.67;;;22.10;56.80;;;;;;3145777;28;20079;-78
2021/06/17 05:02:18;;;;;;;3.25;2.42;;;22.10;56.80;;;;;;3146922;28;20523;-78
2021/06/17 05:03:51;;;;;;;3.15;2.50;;;22.10;56.80;;;;;;3146536;28;20043;-78
2021/06/17 05:05:22;;;;;;;2.70;2.50;;;22.10;56.80;;;;;;3147065;28;20461;-79
2021/06/17 05:06:59;;;;;;;2.78;2.55;;;22.10;56.80;;;;;;3146897;28;20047;-78
2021/06/17 05:12:10;;;;;;;2.50;2.30;;;22.20;56.70;;;;;;3146856;28;20661;-78
2021/06/17 05:13:43;;;;;;;2.70;2.42;;;22.10;56.70;;;;;;3146243;28;20056;-78
2021/06/17 05:15:13;;;;;;;3.70;2.60;;;22.10;56.80;;;;;;3144613;28;20053;-79
2021/06/17 05:16:45;;;;;;;2.97;2.50;;;22.10;56.70;;;;;;3147543;28;20055;-78
2021/06/17 05:18:16;;;;;;;2.83;2.22;;;22.20;56.80;;;;;;3147399;28;20501;-78
2021/06/17 05:19:49;;;;;;;3.03;2.50;;;22.20;56.80;;;;;;3146437;28;20055;-78
2021/06/17 05:21:20;;;;;;;;;;;22.10;56.80;;;;;;3147606;28;20071;-78
2021/06/17 05:22:51;;;;;;;2.58;2.35;;;22.10;56.80;;;;;;3146188;28;19927;-77
2021/06/17 05:24:22;;;;;;;2.58;2.35;;;22.10;56.80;;;;;;3146884;28;20044;-78
2021/06/17 05:25:55;;;;;;;3.03;2.47;;;22.10;56.80;;;;;;3146743;28;20083;-78
2021/06/17 05:27:26;;;;;;;2.70;2.45;;;22.10;56.70;;;;;;3146894;28;20631;-76
2021/06/17 05:28:57;;;;;;;2.50;2.30;;;22.10;56.80;;;;;;3146088;28;20055;-77
2021/06/17 05:30:28;;;;;;;2.90;2.50;;;22.10;56.70;;;;;;3145613;28;20625;-78
2021/06/17 05:31:59;;;;;;;3.25;2.38;;;22.20;56.80;;;;;;3146869;28;20044;-77
2021/06/17 05:33:31;;;;;;;3.10;2.30;;;22.10;56.80;;;;;;3146210;28;20075;-78
2021/06/17 05:35:05;;;;;;;2.55;2.35;;;22.10;56.80;;;;;;3146404;28;20087;-78
2021/06/17 05:36:37;;;;;;;2.90;2.38;;;22.10;56.80;;;;;;3146683;28;20636;-78
2021/06/17 05:38:09;;;;;;;2.70;2.50;;;22.10;56.80;;;;;;3146268;28;20060;-78
2021/06/17 05:39:41;;;;;;;2.85;2.47;;;22.10;56.80;;;;;;3146403;28;20060;-77
2021/06/17 05:41:12;;;;;;;2.70;2.40;;;22.10;56.90;;;;;;3146477;28;20048;-78
2021/06/17 05:42:43;;;;;;;2.40;2.20;;;22.10;56.80;;;;;;3146061;28;20048;-77
2021/06/17 05:44:14;;;;;;;3.05;2.60;;;22.10;56.80;;;;;;3146548;28;20405;-78
2021/06/17 05:45:46;;;;;;;2.63;2.40;;;22.10;56.80;;;;;;3144103;28;20068;-79
2021/06/17 05:47:18;;;;;;;3.20;2.40;;;22.10;56.80;;;;;;3146807;28;20649;-77
2021/06/17 05:48:49;;;;;;;2.67;2.47;;;22.10;56.80;;;;;;3146096;28;20079;-77
2021/06/17 05:50:22;;;;;;;2.80;2.60;;;22.10;56.80;;;;;;3146462;28;20080;-78
2021/06/17 05:51:53;;;;;;;;;;;22.10;56.80;;;;;;3146707;28;20052;-77
2021/06/17 05:53:24;;;;;;;2.50;2.30;;;22.10;56.80;;;;;;3145922;28;19921;-78
2021/06/17 05:54:55;;;;;;;2.60;2.40;;;22.10;56.70;;;;;;3146671;28;20048;-78
2021/06/17 05:56:26;;;;;;;3.30;2.67;;;22.10;56.80;;;;;;3146471;28;20044;-78
2021/06/17 05:57:57;;;;;;;2.65;2.45;;;22.10;56.80;;;;;;3145864;28;20657;-78
2021/06/17 05:59:29;;;;;;;2.75;2.22;;;22.20;56.90;;;;;;3146472;28;20056;-78
2021/06/17 06:00:59;;;;;;;2.75;2.47;;;22.10;56.80;;;;;;3145346;28;20485;-78
2021/06/17 06:02:31;;;;;;;2.63;2.42;;;22.10;56.80;;;;;;3146362;28;20044;-78
2021/06/17 06:04:03;;;;;;;3.22;2.47;;;22.10;56.80;;;;;;3145826;28;20052;-78
2021/06/17 06:05:36;;;;;;;3.08;2.47;;;22.20;56.80;;;;;;3146642;28;20075;-78
2021/06/17 06:07:07;;;;;;;;;;;22.10;56.80;;;;;;3147600;28;20071;-79
2021/06/17 06:08:39;;;;;;;2.65;2.45;;;22.10;56.80;;;;;;3145854;28;20115;-78
2021/06/17 06:10:11;;;;;;;3.08;2.60;;;22.10;56.80;;;;;;3146043;28;20056;-78
2021/06/17 06:11:43;;;;;;;2.72;2.47;;;22.10;56.80;;;;;;3146672;28;20048;-78
2021/06/17 06:13:15;;;;;;;3.03;2.63;;;22.10;56.90;;;;;;3145982;28;20432;-77
2021/06/17 06:14:47;;;;;;;2.40;2.20;;;22.10;56.80;;;;;;3146376;28;20048;-78
2021/06/17 06:16:18;;;;;;;2.90;2.60;;;22.10;56.80;;;;;;3145930;28;20080;-78
2021/06/17 06:17:49;;;;;;;3.05;2.38;;;22.10;56.90;;;;;;3145969;28;20055;-78
2021/06/17 06:19:24;;;;;;;2.58;2.38;;;22.10;56.90;;;;;;3146572;28;20478;-78
2021/06/17 06:20:57;;;;;;;2.83;2.42;;;22.10;56.90;;;;;;3146156;28;20470;-77
2021/06/17 06:22:28;;;;;;;4.15;2.70;;;22.20;56.90;;;;;;3146473;28;20654;-77
2021/06/17 06:24:00;;;;;;;2.97;2.50;;;22.10;56.90;;;;;;3145891;28;20037;-78
2021/06/17 06:25:31;;;;;;;3.35;2.70;;;22.10;56.90;;;;;;3146608;28;20080;-78
2021/06/17 06:27:03;;;;;;;4.75;2.50;;;22.10;56.90;;;;;;3148878;28;20091;-79
2021/06/17 06:28:35;;;;;;;2.65;2.45;;;22.20;57.00;;;;;;3148319;28;20071;-78
2021/06/17 06:30:07;;;;;;;4.13;2.42;;;22.20;56.90;;;;;;3147807;28;20076;-78
2021/06/17 06:31:38;;;;;;;3.15;2.50;;;22.20;57.00;;;;;;3148794;28;20478;-78
2021/06/17 06:33:10;;;;;;;2.65;2.42;;;22.10;56.90;;;;;;3148105;28;20040;-78
2021/06/17 06:34:40;;;;;;;3.08;2.40;;;22.10;56.90;;;;;;3148657;28;20052;-78
2021/06/17 06:36:13;;;;;;;2.90;2.60;;;22.10;56.90;;;;;;3149009;28;20044;-77
2021/06/17 06:37:48;;;;;;;;;;;22.10;56.90;;;;;;3148729;28;20072;-77
2021/06/17 06:39:20;;;;;;;3.03;2.72;;;22.10;57.00;;;;;;3148981;28;19931;-78
2021/06/17 06:40:52;;;;;;;3.75;2.60;;;22.10;57.00;;;;;;3148778;28;20555;-78
2021/06/17 06:42:24;;;;;;;2.85;2.63;;;22.10;57.00;;;;;;3149093;28;20481;-78
2021/06/17 06:43:55;;;;;;;2.58;2.28;;;22.10;57.10;;;;;;3147930;28;20047;-78
2021/06/17 06:45:27;;;;;;;2.65;2.42;;;22.10;57.00;;;;;;3145875;28;20087;-76
2021/06/17 06:46:59;;;;;;;3.33;2.40;;;22.20;57.10;;;;;;3148331;28;20053;-78
2021/06/17 06:48:31;;;;;;;3.13;2.50;;;22.10;57.00;;;;;;3148242;28;20420;-78
2021/06/17 06:50:02;;;;;;;2.60;2.38;;;22.10;57.00;;;;;;3148254;28;20044;-77
2021/06/17 06:51:38;;;;;;;2.88;2.67;;;22.10;57.00;;;;;;3148616;28;20053;-78
2021/06/17 06:53:10;;;;;;;3.40;2.67;;;22.10;57.00;;;;;;3148212;28;20105;-78
2021/06/17 06:54:41;;;;;;;2.97;2.65;;;22.10;57.00;;;;;;3148308;28;20072;-78
2021/06/17 06:56:13;;;;;;;2.60;2.40;;;22.20;57.10;;;;;;3148581;28;20088;-78
2021/06/17 06:57:44;;;;;;;2.47;2.25;;;22.20;57.10;;;;;;3134868;28;20053;-78
2021/06/17 06:59:16;;;;;;;3.72;2.75;;;22.10;57.00;;;;;;3144315;28;20079;-78
2021/06/17 07:00:48;;;;;;;2.42;2.20;;;22.10;57.20;;;;;;3147383;28;20076;-78
2021/06/17 07:02:19;;;;;;;2.75;2.55;;;22.20;57.20;;;;;;3148567;28;20198;-78
2021/06/17 07:03:50;;;;;;;2.70;2.50;;;22.20;57.10;;;;;;3147728;28;20040;-77
2021/06/17 07:05:22;;;;;;;2.80;2.60;;;22.10;57.10;;;;;;3148526;28;20678;-78
2021/06/17 07:06:55;;;;;;;2.97;2.70;;;22.10;57.10;;;;;;3148106;28;20080;-78
2021/06/17 07:08:26;;;;;;;;;;;22.20;57.20;;;;;;3148262;28;20071;-77
2021/06/17 07:09:58;;;;;;;2.83;2.55;;;22.20;57.20;;;;;;3148108;28;19960;-78
2021/06/17 07:11:28;;;;;;;2.97;2.50;;;22.10;57.20;;;;;;3148248;28;20468;-77
2021/06/17 07:13:00;;;;;;;4.07;2.58;;;22.20;57.20;;;;;;3147664;28;20048;-78
2021/06/17 07:14:32;;;;;;;3.22;2.72;;;22.10;57.20;;;;;;3148155;28;20068;-78
2021/06/17 07:16:05;;;;;;;3.20;2.90;;;22.10;57.10;;;;;;3147435;28;20051;-78
2021/06/17 07:17:36;;;;;;;2.97;2.40;;;22.20;58.00;;;;;;3148223;28;20080;-78
2021/06/17 07:19:08;;;;;;;3.17;2.67;;;22.20;57.20;;;;;;3147750;28;20128;-78
2021/06/17 07:20:39;;;;;;;2.83;2.63;;;22.10;57.10;;;;;;3147992;28;20703;-78
2021/06/17 07:22:12;;;;;;;3.58;2.60;;;22.10;57.20;;;;;;3148350;28;20055;-78
2021/06/17 07:23:45;;;;;;;;;;;22.10;57.20;;;;;;3148174;28;20072;-78
2021/06/17 07:25:17;;;;;;;2.90;2.53;;;22.10;57.20;;;;;;3148342;28;20549;-77
2021/06/17 07:26:51;;;;;;;3.20;2.60;;;22.10;57.20;;;;;;3148310;28;20334;-78
2021/06/17 07:28:21;;;;;;;2.85;2.50;;;22.10;57.30;;;;;;3147656;28;20045;-77
2021/06/17 07:29:53;;;;;;;2.72;2.42;;;22.10;57.30;;;;;;3147647;28;20636;-77
2021/06/17 07:31:24;;;;;;;3.65;2.50;;;22.10;57.20;;;;;;3147564;28;20048;-78
2021/06/17 07:32:56;;;;;;;3.17;2.88;;;22.10;57.30;;;;;;3147498;28;20052;-78
2021/06/17 07:34:28;;;;;;;3.10;2.58;;;22.10;57.30;;;;;;3148331;28;20470;-79
2021/06/17 07:35:59;;;;;;;2.60;2.40;;;22.10;57.40;;;;;;3149089;28;20135;-78
2021/06/17 07:37:32;;;;;;;3.08;2.78;;;22.10;57.30;;;;;;3147938;28;20049;-77
2021/06/17 07:39:04;;;;;;;;;;;22.10;57.30;;;;;;3153594;22;20068;-79
2021/06/17 07:40:40;;;;;;;3.78;2.50;;;22.10;57.40;;;;;;3123567;28;19948;-79
2021/06/17 07:42:12;;;;;;;2.78;2.28;;;22.10;57.40;;;;;;3124561;28;20051;-78
2021/06/17 07:43:43;;;;;;;2.85;2.50;;;22.10;57.40;;;;;;3115487;28;20084;-79
2021/06/17 07:45:14;;;;;;;2.45;2.25;;;22.10;57.40;;;;;;3111441;28;20082;-78
2021/06/17 07:46:45;;;;;;;3.67;2.75;;;22.10;57.40;;;;;;3112045;28;20050;-78
2021/06/17 07:48:17;;;;;;;4.20;2.60;;;22.10;57.40;;;;;;3111978;28;20494;-79
2021/06/17 07:49:47;;;;;;;2.50;2.30;;;22.20;57.40;;;;;;3111757;28;20481;-81
2021/06/17 07:51:19;;;;;;;3.00;2.80;;;22.10;57.40;;;;;;3111891;28;20057;-79
2021/06/17 07:52:51;;;;;;;2.60;2.40;;;22.10;57.40;;;;;;3113636;28;20103;-79
2021/06/17 07:54:22;;;;;;;2.92;2.30;;;22.10;57.40;;;;;;3137085;28;20069;-78
2021/06/17 07:55:53;;;;;;;2.83;2.60;;;22.10;57.40;;;;;;3136550;28;20087;-79
2021/06/17 07:57:25;;;;;;;3.55;2.78;;;22.10;57.40;;;;;;3136621;28;20481;-79
2021/06/17 07:58:56;;;;;;;2.63;2.42;;;22.10;57.40;;;;;;3135848;28;20099;-79
2021/06/17 08:00:29;;;;;;;3.03;2.50;;;22.10;57.40;;;;;;3135637;28;20048;-78
2021/06/17 08:02:01;;;;;;;;;;;22.10;57.40;;;;;;3137098;28;20151;-78
2021/06/17 08:03:33;;;;;;;3.40;2.50;;;22.10;57.40;;;;;;3136226;28;20435;-78
2021/06/17 08:05:05;;;;;;;2.88;2.53;;;22.10;57.40;;;;;;3136890;28;20072;-79
2021/06/17 08:06:37;;;;;;;2.72;2.40;;;22.10;57.40;;;;;;3136566;28;20076;-78